createdAt,value
2023-02-14T00:00:48.622Z,102465.25
2023-02-14T00:03:15.999Z,102457.53
2023-02-14T00:05:42.720Z,102451.19
2023-02-14T00:08:09.504Z,102456.38
2023-02-14T00:10:36.232Z,102462.00
2023-02-14T00:13:03.114Z,102458.13
2023-02-14T00:15:29.911Z,102459.97
2023-02-14T00:17:59.851Z,102454.34
2023-02-14T00:20:27.979Z,102456.81
2023-02-14T00:22:55.110Z,102459.91
2023-02-14T00:25:22.052Z,102457.06
2023-02-14T00:27:48.950Z,102457.91
2023-02-14T00:30:15.784Z,102452.56
2023-02-14T00:32:43.037Z,102449.66
2023-02-14T00:35:10.484Z,102455.69
2023-02-14T00:37:40.975Z,102457.69
2023-02-14T00:40:08.276Z,102460.50
2023-02-14T00:42:35.384Z,102453.31
2023-02-14T00:45:02.165Z,102448.84
2023-02-14T00:47:30.336Z,102456.41
2023-02-14T00:50:02.635Z,102451.69
2023-02-14T00:52:31.276Z,102448.44
2023-02-14T00:54:58.468Z,102448.59
2023-02-14T00:57:25.148Z,102441.41
2023-02-14T00:59:51.819Z,102443.25
2023-02-14T01:02:18.481Z,102441.50
2023-02-14T01:04:45.251Z,102447.84
2023-02-14T01:07:11.911Z,102452.78
2023-02-14T01:09:38.518Z,102455.78
2023-02-14T01:12:05.391Z,102447.41
2023-02-14T01:14:32.098Z,102450.34
2023-02-14T01:16:58.799Z,102455.28
2023-02-14T01:19:25.471Z,102454.75
2023-02-14T01:21:52.119Z,102449.25
2023-02-14T01:24:22.601Z,102450.19
2023-02-14T01:26:49.208Z,102457.81
2023-02-14T01:29:16.048Z,102454.88
2023-02-14T01:31:42.926Z,102458.16
2023-02-14T01:34:09.563Z,102453.63
2023-02-14T01:36:38.520Z,102447.22
2023-02-14T01:39:07.892Z,102444.94
2023-02-14T01:41:37.335Z,102446.22
2023-02-14T01:44:16.802Z,102454.00
2023-02-14T01:46:45.663Z,102454.75
2023-02-14T01:49:20.166Z,102451.72
2023-02-14T01:51:52.923Z,102451.34
2023-02-14T01:54:22.510Z,102450.91
2023-02-14T01:56:54.349Z,102454.06
2023-02-14T01:59:26.472Z,102459.78
2023-02-14T02:01:53.575Z,102473.59
2023-02-14T02:04:30.078Z,102465.44
2023-02-14T02:07:01.625Z,102471.06
2023-02-14T02:09:39.334Z,102478.06
2023-02-14T02:12:06.981Z,102481.41
2023-02-14T02:14:34.243Z,102481.09
2023-02-14T02:17:28.283Z,102484.28
2023-02-14T02:20:13.800Z,102474.13
2023-02-14T02:22:43.123Z,102470.47
2023-02-14T02:25:47.089Z,102463.25
2023-02-14T02:28:16.458Z,102459.94
2023-02-14T02:31:14.218Z,102462.34
2023-02-14T02:34:07.503Z,102462.59
2023-02-14T02:36:55.222Z,102454.38
2023-02-14T02:39:34.461Z,102455.22
2023-02-14T02:42:18.403Z,102454.41
2023-02-14T02:44:57.491Z,102457.66
2023-02-14T02:47:31.660Z,102457.41
2023-02-14T02:50:38.441Z,102456.13
2023-02-14T02:53:30.274Z,102451.16
2023-02-14T02:56:48.952Z,102454.03
2023-02-14T02:59:22.888Z,102457.41
2023-02-14T03:02:03.194Z,102453.63
2023-02-14T03:04:49.970Z,102460.06
2023-02-14T03:07:34.890Z,102459.63
2023-02-14T03:10:19.317Z,102458.25
2023-02-14T03:13:12.932Z,102464.41
2023-02-14T03:15:52.089Z,102464.78
2023-02-14T03:19:06.840Z,102453.78
2023-02-14T03:21:59.370Z,102464.88
2023-02-14T03:24:35.079Z,102466.47
2023-02-14T03:27:38.745Z,102457.13
2023-02-14T03:30:20.429Z,102460.75
2023-02-14T03:33:00.237Z,102464.84
2023-02-14T03:35:37.453Z,102458.81
2023-02-14T03:38:11.420Z,102452.53
2023-02-14T03:40:44.738Z,102461.31
2023-02-14T03:43:19.068Z,102455.03
2023-02-14T03:45:53.277Z,102459.50
2023-02-14T03:48:24.004Z,102456.84
2023-02-14T03:50:52.503Z,102455.72
2023-02-14T03:53:24.854Z,102457.66
2023-02-14T03:55:58.329Z,102454.06
2023-02-14T03:58:30.251Z,102456.84
2023-02-14T04:01:02.622Z,102458.66
2023-02-14T04:03:32.207Z,102462.47
2023-02-14T04:05:59.658Z,102460.16
2023-02-14T04:08:29.682Z,102467.59
2023-02-14T04:11:00.377Z,102465.72
2023-02-14T04:13:27.523Z,102462.28
2023-02-14T04:15:54.707Z,102468.88
2023-02-14T04:18:39.772Z,102474.72
2023-02-14T04:21:06.602Z,102480.75
2023-02-14T04:23:33.308Z,102484.66
2023-02-14T04:25:59.992Z,102487.03
2023-02-14T04:28:26.620Z,102484.53
2023-02-14T04:30:53.269Z,102483.84
2023-02-14T04:33:19.916Z,102483.56
2023-02-14T04:35:48.220Z,102482.44
2023-02-14T04:38:15.966Z,102486.75
2023-02-14T04:40:42.638Z,102473.09
2023-02-14T04:43:09.309Z,102475.31
2023-02-14T04:45:35.956Z,102467.19
2023-02-14T04:48:02.541Z,102454.91
2023-02-14T04:50:29.178Z,102473.19
2023-02-14T04:52:55.961Z,102468.88
2023-02-14T04:55:22.620Z,102462.84
2023-02-14T04:57:49.263Z,102468.75
2023-02-14T05:00:16.264Z,102471.94
2023-02-14T05:02:42.918Z,102472.94
2023-02-14T05:05:09.618Z,102471.66
2023-02-14T05:07:36.280Z,102464.94
2023-02-14T05:10:04.885Z,102455.03
2023-02-14T05:12:32.094Z,102456.97
2023-02-14T05:14:58.764Z,102460.47
2023-02-14T05:17:25.431Z,102459.34
2023-02-14T05:19:52.036Z,102456.56
2023-02-14T05:22:18.724Z,102449.16
2023-02-14T05:24:45.370Z,102459.63
2023-02-14T05:27:11.999Z,102457.53
2023-02-14T05:29:38.825Z,102459.34
2023-02-14T05:32:05.459Z,102454.31
2023-02-14T05:34:32.064Z,102454.03
2023-02-14T05:36:58.672Z,102453.50
2023-02-14T05:39:25.276Z,102454.03
2023-02-14T05:41:51.909Z,102452.81
2023-02-14T05:44:18.590Z,102455.88
2023-02-14T05:46:45.176Z,102462.56
2023-02-14T05:49:11.804Z,102463.84
2023-02-14T05:51:38.391Z,102465.75
2023-02-14T05:54:05.093Z,102457.94
2023-02-14T05:56:31.698Z,102461.44
2023-02-14T05:58:58.594Z,102462.44
2023-02-14T06:01:25.160Z,102460.19
2023-02-14T06:03:51.842Z,102469.41
2023-02-14T06:06:18.467Z,102467.47
2023-02-14T06:08:45.120Z,102465.13
2023-02-14T06:11:11.834Z,102461.47
2023-02-14T06:13:40.317Z,102465.66
2023-02-14T06:16:07.069Z,102474.03
2023-02-14T06:18:33.702Z,102474.44
2023-02-14T06:21:00.733Z,102477.81
2023-02-14T06:23:27.635Z,102479.34
2023-02-14T06:25:54.330Z,102478.09
2023-02-14T06:28:21.302Z,102476.16
2023-02-14T06:30:47.999Z,102476.69
2023-02-14T06:33:14.687Z,102471.66
2023-02-14T06:35:41.463Z,102485.66
2023-02-14T06:38:08.160Z,102486.72
2023-02-14T06:40:34.831Z,102488.84
2023-02-14T06:43:01.443Z,102491.22
2023-02-14T06:45:28.050Z,102494.59
2023-02-14T06:47:54.714Z,102493.47
2023-02-14T06:50:21.335Z,102497.38
2023-02-14T06:52:48.277Z,102499.75
2023-02-14T06:55:14.954Z,102500.00
2023-02-14T06:57:41.675Z,102504.72
2023-02-14T07:00:10.072Z,102506.13
2023-02-14T07:02:36.976Z,102508.69
2023-02-14T07:05:04.382Z,102503.22
2023-02-14T07:07:31.325Z,102497.06
2023-02-14T07:09:57.983Z,102499.19
2023-02-14T07:12:24.579Z,102502.81
2023-02-14T07:14:51.219Z,102506.03
2023-02-14T07:17:17.847Z,102510.06
2023-02-14T07:19:44.426Z,102504.50
2023-02-14T07:22:11.085Z,102505.72
2023-02-14T07:24:37.709Z,102513.25
2023-02-14T07:27:04.370Z,102511.16
2023-02-14T07:29:30.972Z,102508.28
2023-02-14T07:31:57.962Z,102513.25
2023-02-14T07:34:24.716Z,102510.25
2023-02-14T07:36:51.371Z,102514.50
2023-02-14T07:39:17.984Z,102511.06
2023-02-14T07:41:44.566Z,102507.13
2023-02-14T07:44:11.679Z,102500.09
2023-02-14T07:46:38.365Z,102511.56
2023-02-14T07:49:04.998Z,102497.28
2023-02-14T07:51:31.603Z,102490.38
2023-02-14T07:53:58.305Z,102496.69
2023-02-14T07:56:24.935Z,102499.50
2023-02-14T07:58:51.616Z,102507.09
2023-02-14T08:01:18.513Z,102504.44
2023-02-14T08:03:49.222Z,102494.19
2023-02-14T08:06:17.461Z,102500.19
2023-02-14T08:08:45.980Z,102496.97
2023-02-14T08:11:33.309Z,102493.84
2023-02-14T08:13:59.898Z,102499.09
2023-02-14T08:16:26.720Z,102494.19
2023-02-14T08:18:53.381Z,102495.75
2023-02-14T08:21:21.088Z,102502.19
2023-02-14T08:23:47.742Z,102499.38
2023-02-14T08:26:14.614Z,102493.91
2023-02-14T08:28:41.323Z,102497.06
2023-02-14T08:31:08.006Z,102501.59
2023-02-14T08:33:34.714Z,102489.88
2023-02-14T08:36:01.527Z,102505.53
2023-02-14T08:38:29.531Z,102500.06
2023-02-14T08:41:01.820Z,102503.41
2023-02-14T08:43:29.305Z,102499.88
2023-02-14T08:45:56.044Z,102502.19
2023-02-14T08:48:23.496Z,102501.44
2023-02-14T08:50:50.568Z,102511.03
2023-02-14T08:53:17.250Z,102500.81
2023-02-14T08:55:43.921Z,102504.25
2023-02-14T08:58:10.845Z,102496.34
2023-02-14T09:00:37.510Z,102506.06
2023-02-14T09:03:04.402Z,102502.28
2023-02-14T09:05:31.158Z,102504.69
2023-02-14T09:07:57.829Z,102501.19
2023-02-14T09:10:25.407Z,102507.38
2023-02-14T09:12:52.660Z,102503.06
2023-02-14T09:15:19.931Z,102503.84
2023-02-14T09:17:47.603Z,102505.34
2023-02-14T09:20:16.048Z,102501.19
2023-02-14T09:22:43.480Z,102500.56
2023-02-14T09:25:11.179Z,102510.88
2023-02-14T09:27:37.891Z,102502.16
2023-02-14T09:30:06.711Z,102504.34
2023-02-14T09:32:33.884Z,102503.09
2023-02-14T09:35:19.823Z,102500.34
2023-02-14T09:38:05.398Z,102502.84
2023-02-14T09:40:33.145Z,102498.56
2023-02-14T09:43:07.306Z,102498.56
2023-02-14T09:45:34.557Z,102496.84
2023-02-14T09:48:07.569Z,102494.22
2023-02-14T09:50:43.946Z,102496.25
2023-02-14T09:53:33.166Z,102499.94
2023-02-14T09:56:25.701Z,102489.75
2023-02-14T09:59:07.605Z,102492.03
2023-02-14T10:01:42.671Z,102485.53
2023-02-14T10:04:31.073Z,102489.03
2023-02-14T10:07:22.431Z,102487.00
2023-02-14T10:10:11.684Z,102481.22
2023-02-14T10:12:52.970Z,102486.91
2023-02-14T10:15:32.379Z,102487.03
2023-02-14T10:18:05.937Z,102488.91
2023-02-14T10:20:38.776Z,102490.03
2023-02-14T10:23:34.489Z,102489.00
2023-02-14T10:26:04.344Z,102486.56
2023-02-14T10:28:40.069Z,102479.34
2023-02-14T10:31:23.964Z,102469.97
2023-02-14T10:33:57.542Z,102472.41
2023-02-14T10:36:48.176Z,102469.00
2023-02-14T10:39:31.692Z,102460.56
2023-02-14T10:42:09.530Z,102464.59
2023-02-14T10:44:47.724Z,102459.94
2023-02-14T10:47:24.336Z,102464.66
2023-02-14T10:50:09.886Z,102458.94
2023-02-14T10:52:44.714Z,102456.38
2023-02-14T10:55:32.337Z,102454.69
2023-02-14T10:58:02.979Z,102452.88
2023-02-14T11:00:41.143Z,102445.72
2023-02-14T11:03:10.793Z,102447.69
2023-02-14T11:05:48.281Z,102445.25
2023-02-14T11:08:38.803Z,102444.19
2023-02-14T11:11:16.438Z,102448.53
2023-02-14T11:13:43.270Z,102440.53
2023-02-14T11:16:13.001Z,102440.53
2023-02-14T11:18:41.137Z,102436.47
2023-02-14T11:21:13.935Z,102441.13
2023-02-14T11:23:46.223Z,102432.97
2023-02-14T11:26:26.842Z,102431.97
2023-02-14T11:29:00.244Z,102426.34
2023-02-14T11:31:30.301Z,102422.16
2023-02-14T11:33:58.584Z,102418.09
2023-02-14T11:36:27.604Z,102418.00
2023-02-14T11:39:21.850Z,102416.41
2023-02-14T11:41:56.063Z,102411.75
2023-02-14T11:44:26.180Z,102409.34
2023-02-14T11:46:55.902Z,102412.75
2023-02-14T11:49:28.386Z,102402.19
2023-02-14T11:51:57.089Z,102400.03
2023-02-14T11:54:34.829Z,102395.09
2023-02-14T11:57:05.999Z,102391.53
2023-02-14T11:59:37.204Z,102393.75
2023-02-14T12:02:28.735Z,102382.09
2023-02-14T12:05:27.237Z,102380.94
2023-02-14T12:07:57.198Z,102375.34
2023-02-14T12:10:28.963Z,102378.38
2023-02-14T12:12:59.720Z,102367.59
2023-02-14T12:15:28.492Z,102372.72
2023-02-14T12:18:37.150Z,102370.06
2023-02-14T12:21:21.550Z,102370.06
2023-02-14T12:24:00.498Z,102358.56
2023-02-14T12:27:05.549Z,102358.97
2023-02-14T12:29:39.412Z,102353.13
2023-02-14T12:32:18.400Z,102355.72
2023-02-14T12:34:45.502Z,102348.81
2023-02-14T12:37:38.012Z,102345.81
2023-02-14T12:40:19.566Z,102339.47
2023-02-14T12:42:55.251Z,102345.50
2023-02-14T12:45:27.057Z,102345.03
2023-02-14T12:48:06.117Z,102334.94
2023-02-14T12:50:55.905Z,102341.25
2023-02-14T12:53:38.331Z,102333.94
2023-02-14T12:56:19.271Z,102338.84
2023-02-14T12:58:58.067Z,102335.34
2023-02-14T13:01:49.754Z,102328.47
2023-02-14T13:04:48.176Z,102316.47
2023-02-14T13:08:00.374Z,102323.31
2023-02-14T13:10:45.403Z,102314.63
2023-02-14T13:13:38.064Z,102320.97
2023-02-14T13:16:23.651Z,102309.78
2023-02-14T13:19:19.006Z,102315.81
2023-02-14T13:21:47.533Z,102309.13
2023-02-14T13:24:25.011Z,102308.47
2023-02-14T13:26:56.575Z,102301.78
2023-02-14T13:29:25.776Z,102300.09
2023-02-14T13:31:58.528Z,102296.28
2023-02-14T13:34:39.075Z,102301.81
2023-02-14T13:37:10.432Z,102290.28
2023-02-14T13:39:45.253Z,102281.13
2023-02-14T13:42:12.980Z,102285.09
2023-02-14T13:44:52.660Z,102280.13
2023-02-14T13:47:22.102Z,102279.78
2023-02-14T13:49:55.735Z,102276.59
2023-02-14T13:52:42.918Z,102276.78
2023-02-14T13:55:17.398Z,102287.13
2023-02-14T13:57:45.158Z,102282.44
2023-02-14T14:00:17.590Z,102279.78
2023-02-14T14:02:48.916Z,102280.78
2023-02-14T14:05:30.877Z,102269.44
2023-02-14T14:08:36.562Z,102277.13
2023-02-14T14:11:10.223Z,102267.78
2023-02-14T14:13:39.895Z,102273.94
2023-02-14T14:16:29.521Z,102264.09
2023-02-14T14:18:56.301Z,102267.06
2023-02-14T14:21:28.761Z,102259.88
2023-02-14T14:24:20.578Z,102258.03
2023-02-14T14:27:08.099Z,102257.31
2023-02-14T14:29:41.161Z,102255.81
2023-02-14T14:32:10.139Z,102257.81
2023-02-14T14:34:37.149Z,102257.66
2023-02-14T14:37:15.519Z,102254.69
2023-02-14T14:39:42.255Z,102248.66
2023-02-14T14:42:16.884Z,102247.63
2023-02-14T14:44:55.979Z,102247.09
2023-02-14T14:47:29.394Z,102243.13
2023-02-14T14:50:10.162Z,102250.63
2023-02-14T14:52:41.801Z,102243.47
2023-02-14T14:55:16.011Z,102246.75
2023-02-14T14:57:50.273Z,102243.25
2023-02-14T15:00:24.929Z,102242.94
2023-02-14T15:03:02.907Z,102238.72
2023-02-14T15:05:44.327Z,102227.47
2023-02-14T15:08:23.155Z,102222.63
2023-02-14T15:10:57.919Z,102229.88
2023-02-14T15:13:54.977Z,102216.97
2023-02-14T15:16:26.212Z,102219.63
2023-02-14T15:19:01.006Z,102212.59
2023-02-14T15:21:28.551Z,102223.63
2023-02-14T15:23:55.795Z,102216.88
2023-02-14T15:26:32.459Z,102221.72
2023-02-14T15:29:06.297Z,102211.34
2023-02-14T15:31:38.347Z,102219.88
2023-02-14T15:34:06.582Z,102208.88
2023-02-14T15:36:35.265Z,102212.03
2023-02-14T15:39:06.596Z,102211.06
2023-02-14T15:41:33.908Z,102211.22
2023-02-14T15:44:01.671Z,102211.69
2023-02-14T15:46:37.119Z,102209.06
2023-02-14T15:49:15.479Z,102214.56
2023-02-14T15:51:43.292Z,102209.22
2023-02-14T15:54:31.858Z,102211.56
2023-02-14T15:56:58.945Z,102204.88
2023-02-14T15:59:31.316Z,102211.84
2023-02-14T16:02:06.130Z,102206.31
2023-02-14T16:04:35.487Z,102206.31
2023-02-14T16:07:23.764Z,102203.03
2023-02-14T16:10:11.900Z,102203.03
2023-02-14T16:12:42.094Z,102202.84
2023-02-14T16:15:21.991Z,102201.28
2023-02-14T16:17:49.522Z,102201.97
2023-02-14T16:20:23.152Z,102203.47
2023-02-14T16:22:50.583Z,102195.16
2023-02-14T16:25:18.248Z,102197.81
2023-02-14T16:27:46.049Z,102194.75
2023-02-14T16:30:19.406Z,102200.66
2023-02-14T16:32:51.621Z,102189.13
2023-02-14T16:35:21.396Z,102195.94
2023-02-14T16:37:50.776Z,102192.97
2023-02-14T16:40:21.348Z,102192.47
2023-02-14T16:42:48.392Z,102194.75
2023-02-14T16:45:18.124Z,102197.09
2023-02-14T16:47:49.217Z,102198.53
2023-02-14T16:50:17.595Z,102202.88
2023-02-14T16:52:47.616Z,102207.22
2023-02-14T16:55:17.681Z,102198.84
2023-02-14T16:57:47.628Z,102209.00
2023-02-14T17:00:14.948Z,102214.44
2023-02-14T17:02:44.184Z,102211.38
2023-02-14T17:05:11.705Z,102215.47
2023-02-14T17:07:41.863Z,102213.13
2023-02-14T17:10:18.060Z,102219.41
2023-02-14T17:12:47.268Z,102218.19
2023-02-14T17:15:18.504Z,102220.84
2023-02-14T17:17:47.441Z,102220.41
2023-02-14T17:20:15.821Z,102222.91
2023-02-14T17:22:42.595Z,102226.34
2023-02-14T17:25:09.581Z,102235.16
2023-02-14T17:27:36.799Z,102235.50
2023-02-14T17:30:04.607Z,102235.19
2023-02-14T17:32:35.117Z,102227.06
2023-02-14T17:35:03.464Z,102228.06
2023-02-14T17:37:31.991Z,102235.56
2023-02-14T17:39:58.638Z,102230.56
2023-02-14T17:42:25.361Z,102232.66
2023-02-14T17:44:52.500Z,102224.34
2023-02-14T17:47:19.710Z,102237.16
2023-02-14T17:49:47.393Z,102230.16
2023-02-14T17:52:15.639Z,102234.66
2023-02-14T17:54:42.744Z,102229.50
2023-02-14T17:57:09.955Z,102227.69
2023-02-14T17:59:36.743Z,102226.50
2023-02-14T18:02:03.693Z,102222.72
2023-02-14T18:04:30.487Z,102221.63
2023-02-14T18:06:57.335Z,102215.41
2023-02-14T18:09:25.666Z,102220.75
2023-02-14T18:11:52.536Z,102221.69
2023-02-14T18:14:19.485Z,102218.81
2023-02-14T18:16:46.359Z,102218.75
2023-02-14T18:19:15.838Z,102221.50
2023-02-14T18:21:44.651Z,102209.47
2023-02-14T18:24:12.377Z,102204.13
2023-02-14T18:26:40.595Z,102209.94
2023-02-14T18:29:12.208Z,102210.00
2023-02-14T18:31:41.780Z,102207.47
2023-02-14T18:34:09.656Z,102198.66
2023-02-14T18:36:38.504Z,102186.72
2023-02-14T18:39:06.494Z,102186.50
2023-02-14T18:41:33.431Z,102190.63
2023-02-14T18:44:01.089Z,102189.91
2023-02-14T18:46:31.295Z,102184.22
2023-02-14T18:48:57.932Z,102186.22
2023-02-14T18:51:27.684Z,102187.72
2023-02-14T18:53:56.662Z,102184.84
2023-02-14T18:56:29.768Z,102182.16
2023-02-14T18:59:00.890Z,102174.72
2023-02-14T19:01:33.133Z,102173.19
2023-02-14T19:04:01.070Z,102174.84
2023-02-14T19:06:30.041Z,102172.31
2023-02-14T19:08:57.540Z,102173.47
2023-02-14T19:11:28.068Z,102177.50
2023-02-14T19:13:56.872Z,102175.19
2023-02-14T19:16:29.496Z,102167.56
2023-02-14T19:18:56.314Z,102170.09
2023-02-14T19:21:30.341Z,102171.75
2023-02-14T19:23:57.858Z,102166.69
2023-02-14T19:26:32.712Z,102166.16
2023-02-14T19:29:01.899Z,102172.34
2023-02-14T19:31:29.362Z,102172.53
2023-02-14T19:33:56.609Z,102167.84
2023-02-14T19:36:24.336Z,102166.78
2023-02-14T19:38:53.412Z,102153.44
2023-02-14T19:41:25.742Z,102155.53
2023-02-14T19:43:55.099Z,102152.38
2023-02-14T19:46:21.942Z,102154.03
2023-02-14T19:48:49.015Z,102155.72
2023-02-14T19:51:22.150Z,102144.38
2023-02-14T19:53:50.060Z,102149.41
2023-02-14T19:56:22.363Z,102145.59
2023-02-14T19:58:50.798Z,102146.72
2023-02-14T20:01:36.303Z,102146.72
2023-02-14T20:04:07.531Z,102146.44
2023-02-14T20:06:34.373Z,102138.06
2023-02-14T20:09:02.050Z,102139.97
2023-02-14T20:11:36.238Z,102138.50
2023-02-14T20:14:03.671Z,102137.09
2023-02-14T20:16:32.761Z,102139.47
2023-02-14T20:19:05.135Z,102128.50
2023-02-14T20:21:31.910Z,102129.25
2023-02-14T20:24:01.909Z,102124.78
2023-02-14T20:26:30.765Z,102122.91
2023-02-14T20:29:03.723Z,102123.69
2023-02-14T20:31:32.132Z,102121.19
2023-02-14T20:33:59.692Z,102120.09
2023-02-14T20:36:26.626Z,102117.13
2023-02-14T20:39:13.121Z,102118.59
2023-02-14T20:41:40.248Z,102108.03
2023-02-14T20:44:09.977Z,102120.16
2023-02-14T20:46:36.761Z,102109.53
2023-02-14T20:49:03.961Z,102109.69
2023-02-14T20:51:30.866Z,102109.22
2023-02-14T20:53:57.532Z,102105.56
2023-02-14T20:56:24.302Z,102101.06
2023-02-14T20:58:51.305Z,102112.44
2023-02-14T21:01:21.239Z,102104.84
2023-02-14T21:03:52.886Z,102108.66
2023-02-14T21:06:22.687Z,102103.03
2023-02-14T21:08:50.213Z,102102.19
2023-02-14T21:11:19.907Z,102093.22
2023-02-14T21:13:46.672Z,102089.56
2023-02-14T21:16:16.613Z,102088.59
2023-02-14T21:18:51.590Z,102091.91
2023-02-14T21:21:20.578Z,102092.16
2023-02-14T21:23:52.117Z,102088.06
2023-02-14T21:26:20.058Z,102090.66
2023-02-14T21:28:47.511Z,102091.00
2023-02-14T21:31:17.622Z,102085.25
2023-02-14T21:33:44.235Z,102086.97
2023-02-14T21:36:14.239Z,102078.72
2023-02-14T21:38:43.345Z,102085.19
2023-02-14T21:41:18.669Z,102080.69
2023-02-14T21:43:47.649Z,102084.88
2023-02-14T21:46:17.262Z,102086.09
2023-02-14T21:49:03.487Z,102077.53
2023-02-14T21:51:31.399Z,102070.13
2023-02-14T21:54:01.473Z,102074.97
2023-02-14T21:56:28.634Z,102078.97
2023-02-14T21:58:56.237Z,102069.91
2023-02-14T22:01:26.203Z,102069.16
2023-02-14T22:03:53.464Z,102058.66
2023-02-14T22:06:21.297Z,102060.94
2023-02-14T22:08:56.013Z,102064.75
2023-02-14T22:11:26.554Z,102055.94
2023-02-14T22:13:53.407Z,102057.72
2023-02-14T22:16:21.805Z,102053.84
2023-02-14T22:18:49.059Z,102057.66
2023-02-14T22:21:19.687Z,102059.31
2023-02-14T22:23:46.998Z,102059.53
2023-02-14T22:26:25.857Z,102060.81
2023-02-14T22:28:56.869Z,102066.63
2023-02-14T22:31:25.345Z,102067.84
2023-02-14T22:33:52.750Z,102070.97
2023-02-14T22:36:20.214Z,102065.03
2023-02-14T22:38:47.177Z,102056.75
2023-02-14T22:41:19.309Z,102054.41
2023-02-14T22:43:46.537Z,102056.69
2023-02-14T22:46:19.728Z,102051.97
2023-02-14T22:48:48.135Z,102044.47
2023-02-14T22:51:23.973Z,102038.41
2023-02-14T22:53:52.983Z,102042.41
2023-02-14T22:56:23.406Z,102042.78
2023-02-14T22:58:57.573Z,102038.09
2023-02-14T23:01:24.931Z,102045.91
2023-02-14T23:03:56.955Z,102037.41
2023-02-14T23:06:28.607Z,102040.63
2023-02-14T23:08:56.011Z,102037.41
2023-02-14T23:11:28.608Z,102035.97
2023-02-14T23:14:14.563Z,102036.88
2023-02-14T23:17:00.330Z,102041.59
2023-02-14T23:19:49.048Z,102042.25
2023-02-14T23:22:27.711Z,102040.22
2023-02-14T23:24:59.603Z,102038.13
2023-02-14T23:27:36.014Z,102035.31
2023-02-14T23:30:05.508Z,102046.78
2023-02-14T23:32:32.375Z,102045.47
2023-02-14T23:34:58.957Z,102048.44
2023-02-14T23:37:25.804Z,102037.25
2023-02-14T23:39:52.586Z,102052.59
2023-02-14T23:42:19.231Z,102049.34
2023-02-14T23:44:46.814Z,102043.88
2023-02-14T23:47:14.560Z,102042.44
2023-02-14T23:49:41.956Z,102044.09
2023-02-14T23:52:11.523Z,102041.91
2023-02-14T23:54:38.959Z,102039.09
2023-02-14T23:57:07.307Z,102038.13
2023-02-14T23:59:35.376Z,102038.88
